createdAt,value
2023-12-30T00:02:08.478Z,100961.00297143591
2023-12-30T00:05:10.997Z,100961.26375526637
2023-12-30T00:08:07.582Z,100955.78380717321
2023-12-30T00:11:07.130Z,100953.34695810718
2023-12-30T00:14:07.660Z,100957.0302463342
2023-12-30T00:17:03.242Z,100960.42182471974
2023-12-30T00:20:10.785Z,100956.0828426784
2023-12-30T00:23:08.341Z,100951.93829295912
2023-12-30T00:26:06.892Z,100960.55045321364
2023-12-30T00:29:12.428Z,100953.9508132759
2023-12-30T00:32:10.997Z,100949.58952748586
2023-12-30T00:35:13.536Z,100956.61788943564
2023-12-30T00:38:11.051Z,100958.78691910613
2023-12-30T00:41:08.604Z,100949.66177020277
2023-12-30T00:44:05.185Z,100946.77070753677
2023-12-30T00:47:11.694Z,100941.1886457602
2023-12-30T00:50:18.288Z,100946.2166124344
2023-12-30T00:53:15.801Z,100945.66922045393
2023-12-30T00:56:14.368Z,100954.93785669835
2023-12-30T00:59:16.891Z,100955.38578689775
2023-12-30T01:02:12.575Z,100966.2818781563
2023-12-30T01:05:11.104Z,100963.03129198718
2023-12-30T01:08:12.578Z,100963.77983665346
2023-12-30T01:11:09.105Z,100951.79796516249
2023-12-30T01:14:15.658Z,100954.1041823601
2023-12-30T01:17:12.212Z,100955.29530814599
2023-12-30T01:20:09.369Z,100954.99929888376
2023-12-30T01:23:07.335Z,100965.5348467398
2023-12-30T01:26:05.870Z,100959.90824368021
2023-12-30T01:29:03.448Z,100956.16271465873
2023-12-30T01:32:09.043Z,100960.02894291187
2023-12-30T01:35:08.595Z,100956.42737996654
2023-12-30T01:38:11.060Z,100953.16407254875
2023-12-30T01:41:08.626Z,100953.0842648638
2023-12-30T01:44:06.210Z,100946.68020114335
2023-12-30T01:47:02.764Z,100948.22412510963
2023-12-30T01:49:59.357Z,100952.74699051894
2023-12-30T01:53:02.132Z,100945.22143389354
2023-12-30T01:55:59.420Z,100945.28652937248
2023-12-30T01:58:56.966Z,100930.65674309358
2023-12-30T02:01:55.613Z,100933.34498910602
2023-12-30T02:04:52.121Z,100922.96798951465
2023-12-30T02:07:53.635Z,100931.40540068659
2023-12-30T02:10:51.160Z,100928.85261846126
2023-12-30T02:13:49.750Z,100927.76647683827
2023-12-30T02:16:48.271Z,100933.53459056272
2023-12-30T02:19:55.559Z,100924.91012860405
2023-12-30T02:22:54.348Z,100919.47650039388
2023-12-30T02:25:55.925Z,100931.48207117191
2023-12-30T02:28:51.453Z,100919.98519334198
2023-12-30T02:31:52.085Z,100918.5870820671
2023-12-30T02:34:58.583Z,100917.3805248306
2023-12-30T02:37:54.124Z,100912.27258636615
2023-12-30T02:40:51.647Z,100910.92185858777
2023-12-30T02:43:55.236Z,100910.07910349072
2023-12-30T02:46:53.746Z,100903.64730488381
2023-12-30T02:49:53.407Z,100904.16203163743
2023-12-30T02:52:59.023Z,100894.95344142914
2023-12-30T02:55:57.416Z,100899.79855874371
2023-12-30T02:58:56.969Z,100910.51584101665
2023-12-30T03:01:53.653Z,100904.44214913288
2023-12-30T03:04:50.194Z,100902.51799542861
2023-12-30T03:07:50.613Z,100900.75212692947
2023-12-30T03:10:46.306Z,100901.00580615262
2023-12-30T03:13:43.764Z,100898.78781843
2023-12-30T03:16:40.306Z,100896.60471471626
2023-12-30T03:19:44.888Z,100898.99017083645
2023-12-30T03:22:41.457Z,100898.61367080084
2023-12-30T03:25:38.990Z,100906.87153509175
2023-12-30T03:28:44.466Z,100905.2278937988
2023-12-30T03:31:42.102Z,100908.32469185564
2023-12-30T03:34:39.665Z,100902.47132304065
2023-12-30T03:37:40.163Z,100911.82595251355
2023-12-30T03:40:36.775Z,100908.8262582189
2023-12-30T03:43:41.272Z,100913.53807120684
2023-12-30T03:46:38.815Z,100915.50460152888
2023-12-30T03:49:35.530Z,100911.11921676816
2023-12-30T03:52:40.895Z,100914.56659178395
2023-12-30T03:55:37.633Z,100912.21779753258
2023-12-30T03:58:34.060Z,100911.09373030018
2023-12-30T04:01:30.623Z,100911.75232147572
2023-12-30T04:04:36.110Z,100921.69063431286
2023-12-30T04:07:33.711Z,100920.14452951378
2023-12-30T04:10:33.357Z,100920.94345863517
2023-12-30T04:13:30.878Z,100916.88866605924
2023-12-30T04:16:28.366Z,100920.26067427408
2023-12-30T04:19:28.909Z,100919.95627452015
2023-12-30T04:22:26.443Z,100924.9842631636
2023-12-30T04:25:22.061Z,100932.06848374751
2023-12-30T04:28:18.648Z,100930.03188842168
2023-12-30T04:31:17.262Z,100927.82880253234
2023-12-30T04:34:15.881Z,100928.42191178135
2023-12-30T04:37:12.242Z,100933.18244371258
2023-12-30T04:40:09.862Z,100933.48368249128
2023-12-30T04:43:08.406Z,100931.60126551156
2023-12-30T04:46:04.901Z,100931.68657947783
2023-12-30T04:49:03.553Z,100933.30605470779
2023-12-30T04:52:02.193Z,100930.35541234537
2023-12-30T04:55:00.639Z,100938.75300090456
2023-12-30T04:57:58.183Z,100937.94883922378
2023-12-30T05:00:57.785Z,100935.89565910489
2023-12-30T05:03:54.309Z,100932.22786471169
2023-12-30T05:06:52.779Z,100933.04189606034
2023-12-30T05:09:54.398Z,100935.8158473566
2023-12-30T05:12:51.013Z,100938.26387322003
2023-12-30T05:15:56.450Z,100936.00891038496
2023-12-30T05:18:57.135Z,100941.83513368235
2023-12-30T05:21:55.534Z,100940.7454744871
2023-12-30T05:25:01.070Z,100942.28154601646
2023-12-30T05:28:01.637Z,100934.80577174503
2023-12-30T05:30:58.422Z,100944.91984839052
2023-12-30T05:34:04.716Z,100939.26407883746
2023-12-30T05:37:02.305Z,100939.50509923344
2023-12-30T05:40:00.932Z,100936.35693483193
2023-12-30T05:43:07.418Z,100933.42438653902
2023-12-30T05:46:06.999Z,100937.24985074336
2023-12-30T05:49:08.625Z,100946.57132991048
2023-12-30T05:52:06.061Z,100953.78996172783
2023-12-30T05:55:03.619Z,100950.3443983883
2023-12-30T05:58:00.199Z,100955.79261104562
2023-12-30T06:00:57.784Z,100955.98082909193
2023-12-30T06:03:56.322Z,100957.46340841948
2023-12-30T06:06:56.796Z,100962.3852472905
2023-12-30T06:09:54.329Z,100968.04895018747
2023-12-30T06:12:53.903Z,100966.573945695
2023-12-30T06:15:58.470Z,100968.43783481764
2023-12-30T06:18:56.015Z,100971.58779000991
2023-12-30T06:21:52.563Z,100976.8626424029
2023-12-30T06:24:50.037Z,100972.22389579882
2023-12-30T06:27:48.619Z,100972.5988615872
2023-12-30T06:30:49.204Z,100974.19718391099
2023-12-30T06:33:48.784Z,100978.12295665049
2023-12-30T06:36:52.402Z,100971.79026484396
2023-12-30T06:39:52.874Z,100977.14614274555
2023-12-30T06:42:54.402Z,100971.56444380319
2023-12-30T06:45:53.059Z,100972.29297934678
2023-12-30T06:48:50.476Z,100973.02093470501
2023-12-30T06:51:48.045Z,100967.38357069896
2023-12-30T06:54:45.565Z,100975.69878760017
2023-12-30T06:57:51.152Z,100977.54308988573
2023-12-30T07:00:47.770Z,100985.59789326492
2023-12-30T07:03:45.330Z,100985.03732322397
2023-12-30T07:06:42.819Z,100988.78784842971
2023-12-30T07:09:52.361Z,100995.00661871099
2023-12-30T07:12:50.889Z,100995.50573626989
2023-12-30T07:15:48.551Z,100985.11321285371
2023-12-30T07:18:49.070Z,100989.42377432996
2023-12-30T07:21:55.539Z,100997.42875926645
2023-12-30T07:24:54.073Z,100990.50122712007
2023-12-30T07:27:51.717Z,100986.66206579168
2023-12-30T07:30:52.344Z,100991.60418339477
2023-12-30T07:33:50.935Z,100986.6588824336
2023-12-30T07:36:49.292Z,101000.12262281301
2023-12-30T07:39:49.933Z,100995.83405004315
2023-12-30T07:42:47.403Z,100994.63549241298
2023-12-30T07:45:45.936Z,100997.23394939535
2023-12-30T07:48:41.615Z,100994.91128683701
2023-12-30T07:51:40.005Z,100989.52060064163
2023-12-30T07:54:46.630Z,100994.94058099452
2023-12-30T07:57:44.137Z,100997.32342169154
2023-12-30T08:00:45.531Z,101003.1300887204
2023-12-30T08:03:42.312Z,101007.97924901494
2023-12-30T08:06:42.829Z,101011.02031275889
2023-12-30T08:09:49.348Z,101011.22710756441
2023-12-30T08:12:48.043Z,101018.6161788469
2023-12-30T08:15:52.465Z,101026.7123829455
2023-12-30T08:18:58.065Z,101028.59739937942
2023-12-30T08:21:55.562Z,101041.13812735851
2023-12-30T08:24:59.087Z,101033.57019079104
2023-12-30T08:27:57.693Z,101038.66606344684
2023-12-30T08:30:55.766Z,101042.50757899208
2023-12-30T08:34:01.985Z,101044.15829080855
2023-12-30T08:37:09.375Z,101046.40917369178
2023-12-30T08:40:06.861Z,101050.73355127676
2023-12-30T08:43:17.407Z,101048.3413680277
2023-12-30T08:46:13.309Z,101047.31112691127
2023-12-30T08:49:11.240Z,101046.46459785668
2023-12-30T08:52:12.126Z,101048.58858449504
2023-12-30T08:55:19.547Z,101055.90389197881
2023-12-30T08:58:16.124Z,101058.36811700629
2023-12-30T09:01:22.739Z,101066.43308305112
2023-12-30T09:04:20.318Z,101057.61362292597
2023-12-30T09:07:18.819Z,101058.78419971759
2023-12-30T09:10:20.447Z,101058.7073479098
2023-12-30T09:13:17.857Z,101051.86066409435
2023-12-30T09:16:16.409Z,101058.48733625005
2023-12-30T09:19:23.016Z,101056.36615966172
2023-12-30T09:22:24.508Z,101047.99464429202
2023-12-30T09:25:26.091Z,101057.02569318828
2023-12-30T09:31:37.168Z,101045.25322398891
2023-12-30T09:34:41.754Z,101046.71923350698
2023-12-30T09:37:45.193Z,101042.71633435246
2023-12-30T09:40:44.788Z,101044.7138343676
2023-12-30T09:43:42.357Z,101046.46248775453
2023-12-30T09:46:43.914Z,101036.41652186241
2023-12-30T09:49:43.394Z,101043.09015289752
2023-12-30T09:52:42.953Z,101046.43310890853
2023-12-30T09:55:39.574Z,101040.89231581264
2023-12-30T09:58:47.328Z,101037.47206220421
2023-12-30T10:01:46.643Z,101041.78361186305
2023-12-30T10:04:44.224Z,101046.0255672546
2023-12-30T10:07:42.788Z,101040.75978358465
2023-12-30T10:10:43.292Z,101037.05493316727
2023-12-30T10:13:41.795Z,101038.10206812077
2023-12-30T10:16:40.369Z,101041.08616214481
2023-12-30T10:19:41.881Z,101045.143090953
2023-12-30T10:22:40.678Z,101041.65077718924
2023-12-30T10:25:39.113Z,101046.5739219361
2023-12-30T10:28:40.604Z,101045.37704407857
2023-12-30T10:31:37.178Z,101042.15594893743
2023-12-30T10:34:36.737Z,101045.51448796444
2023-12-30T10:37:36.277Z,101038.70179009854
2023-12-30T10:40:37.785Z,101031.83681745357
2023-12-30T10:43:37.271Z,101035.35375358774
2023-12-30T10:46:37.276Z,101032.73810335742
2023-12-30T10:49:40.399Z,101036.03141699107
2023-12-30T10:53:01.086Z,101029.0300943325
2023-12-30T10:56:05.402Z,101025.7423669658
2023-12-30T10:59:05.915Z,101024.26996656365
2023-12-30T11:02:09.599Z,101025.95509081158
2023-12-30T11:05:07.096Z,101021.21717611967
2023-12-30T11:08:04.585Z,101022.50717673765
2023-12-30T11:11:08.209Z,101020.78968861305
2023-12-30T11:14:12.694Z,101019.50874932818
2023-12-30T11:17:24.342Z,101015.71491774883
2023-12-30T11:20:31.952Z,101027.23800353672
2023-12-30T11:23:29.281Z,101016.76025156071
2023-12-30T11:26:29.847Z,101018.84919504833
2023-12-30T11:29:27.482Z,101019.64531147695
2023-12-30T11:32:25.054Z,101017.905813787
2023-12-30T11:35:27.477Z,101009.8796647886
2023-12-30T11:38:32.490Z,101003.83692409513
2023-12-30T11:41:31.585Z,101006.2687671783
2023-12-30T11:44:40.126Z,101004.00413982217
2023-12-30T11:47:45.833Z,100998.42271277092
2023-12-30T11:50:53.211Z,101007.36135496295
2023-12-30T11:54:01.778Z,100999.9147077263
2023-12-30T11:57:00.290Z,100998.00527558537
2023-12-30T11:59:57.814Z,100992.85167773844
2023-12-30T12:02:55.368Z,100994.2939765709
2023-12-30T12:05:52.972Z,100984.04010131073
2023-12-30T12:08:49.506Z,100985.02718943756
2023-12-30T12:11:47.077Z,100976.94453561156
2023-12-30T12:14:54.601Z,100975.97030214709
2023-12-30T12:17:55.031Z,100978.5735505199
2023-12-30T12:21:00.759Z,100975.49053557051
2023-12-30T12:23:58.238Z,100974.1249912481
2023-12-30T12:26:58.763Z,100969.85304171109
2023-12-30T12:29:57.368Z,100972.97582859722
2023-12-30T12:32:56.943Z,100976.36839959807
2023-12-30T12:36:05.452Z,100975.13537317456
2023-12-30T12:39:04.972Z,100977.8971004699
2023-12-30T12:42:02.235Z,100974.46510054829
2023-12-30T12:45:03.072Z,100968.9330310972
2023-12-30T12:48:01.778Z,100968.50623670188
2023-12-30T12:50:58.399Z,100966.44142851247
2023-12-30T12:53:56.931Z,100972.05207354912
2023-12-30T12:56:57.281Z,100971.52505526548
2023-12-30T12:59:54.860Z,100968.9330310972
2023-12-30T13:02:57.659Z,100962.68139454677
2023-12-30T13:05:55.989Z,100966.09071789218
2023-12-30T13:09:01.466Z,100973.48974112753
2023-12-30T13:12:03.039Z,100980.53472086182
2023-12-30T13:15:19.771Z,100973.42536410468
2023-12-30T13:18:21.234Z,100988.3057798282
2023-12-30T13:21:17.750Z,100984.78917559986
2023-12-30T13:24:16.239Z,100988.21882530613
2023-12-30T13:27:23.830Z,100990.93309555693
2023-12-30T13:30:24.437Z,100991.136611977
2023-12-30T13:33:23.258Z,100994.07470008856
2023-12-30T13:36:20.397Z,101002.12719235955
2023-12-30T13:39:28.859Z,100998.37470348002
2023-12-30T13:42:27.437Z,101002.40114972559
2023-12-30T13:45:28.016Z,101001.89902914381
2023-12-30T13:50:19.270Z,101008.04900682862
2023-12-30T13:53:20.878Z,101006.54803276663
2023-12-30T13:56:22.358Z,101013.41244623384
2023-12-30T13:59:19.940Z,101011.06094659076
2023-12-30T14:02:19.832Z,101012.15590720669
2023-12-30T14:05:19.252Z,101023.18212138097
2023-12-30T14:08:32.595Z,101023.89471608438
2023-12-30T14:11:34.079Z,101018.77701774763
2023-12-30T14:14:41.646Z,101021.9064165457
2023-12-30T14:17:46.230Z,101008.44167636723
2023-12-30T14:20:43.731Z,101019.617958766
2023-12-30T14:23:46.284Z,101021.94261121415
2023-12-30T14:26:44.838Z,101023.67984187069
2023-12-30T14:29:42.409Z,101028.87356961524
2023-12-30T14:32:43.291Z,101032.7300234159
2023-12-30T14:35:40.488Z,101034.96158359222
2023-12-30T14:38:40.011Z,101029.17950836006
2023-12-30T14:41:37.597Z,101040.40847754321
2023-12-30T14:44:37.161Z,101032.21206340313
2023-12-30T14:47:32.761Z,101039.28784862133
2023-12-30T14:50:32.289Z,101048.36419216711
2023-12-30T14:53:29.804Z,101044.7540322486
2023-12-30T14:56:34.353Z,101053.42299344855
2023-12-30T14:59:31.865Z,101053.82004198473
2023-12-30T15:02:39.536Z,101058.86961511226
2023-12-30T15:05:35.031Z,101058.83605069085
2023-12-30T15:08:42.570Z,101059.20093794972
2023-12-30T15:11:40.093Z,101056.12996872122
2023-12-30T15:14:41.640Z,101056.02074959704
2023-12-30T15:17:43.352Z,101060.28488725035
2023-12-30T15:20:45.715Z,101063.93918390879
2023-12-30T15:23:48.277Z,101064.79808873718
2023-12-30T15:26:49.781Z,101067.23746904214
2023-12-30T15:29:56.336Z,101066.59241058814
2023-12-30T15:32:59.798Z,101067.61272512055
2023-12-30T15:36:04.424Z,101058.96011113304
2023-12-30T15:39:06.022Z,101067.22006666631
2023-12-30T15:45:17.044Z,101067.61272512055
2023-12-30T15:48:19.835Z,101062.95044244516
2023-12-30T15:51:20.147Z,101058.405089673
2023-12-30T15:54:26.685Z,101070.37676622922
2023-12-30T15:57:31.220Z,101069.82686340634
2023-12-30T16:00:34.783Z,101072.11946934683
2023-12-30T16:03:36.374Z,101071.05601202475
2023-12-30T16:06:38.826Z,101069.38040376536
2023-12-30T16:09:36.463Z,101073.07555021587
2023-12-30T16:12:38.936Z,101071.8475370824
2023-12-30T16:15:38.761Z,101073.96696730507
2023-12-30T16:18:42.055Z,101072.5917949736
2023-12-30T16:21:47.434Z,101078.3258615209
2023-12-30T16:24:47.326Z,101080.51481176548
2023-12-30T16:27:54.664Z,101079.4189437843
2023-12-30T16:30:58.226Z,101084.87704168657
2023-12-30T16:34:05.982Z,101084.27597314274
2023-12-30T16:37:05.308Z,101086.4515153395
2023-12-30T16:40:11.812Z,101083.38211614692
2023-12-30T16:43:15.632Z,101085.5576433553
2023-12-30T16:46:18.927Z,101083.4412280477
2023-12-30T16:49:28.455Z,101083.20074192535
2023-12-30T16:52:29.996Z,101087.64489899052
2023-12-30T16:55:32.587Z,101095.2181042792
2023-12-30T16:58:35.098Z,101089.66655140597
2023-12-30T17:01:32.720Z,101081.8018930547
2023-12-30T17:04:35.310Z,101086.93302625627
2023-12-30T17:07:37.760Z,101086.33004035363
2023-12-30T17:10:41.322Z,101084.16076637943
2023-12-30T17:13:46.739Z,101086.51043339065
2023-12-30T17:16:51.206Z,101086.70580839721
2023-12-30T17:19:48.869Z,101082.17818415372
2023-12-30T17:22:52.431Z,101081.42556409912
2023-12-30T17:25:59.229Z,101084.40634733361
2023-12-30T17:29:00.484Z,101088.08272492496
2023-12-30T17:31:59.018Z,101091.91959912912
2023-12-30T17:35:05.578Z,101092.9512508107
2023-12-30T17:38:09.364Z,101092.01523756166
2023-12-30T17:41:11.627Z,101102.28060653697
2023-12-30T17:44:15.185Z,101095.0982920881
2023-12-30T17:47:13.751Z,101097.79423184555
2023-12-30T17:50:12.308Z,101098.10519193563
2023-12-30T17:53:19.892Z,101100.8022716267
2023-12-30T17:56:16.383Z,101097.67376222332
2023-12-30T17:59:12.920Z,101103.3428016407
2023-12-30T18:02:19.668Z,101100.31883850972
2023-12-30T18:05:17.083Z,101105.17643739523
2023-12-30T18:08:13.596Z,101115.50241573997
2023-12-30T18:11:10.154Z,101110.14555712826
2023-12-30T18:14:09.716Z,101115.23716819924
2023-12-30T18:17:16.268Z,101110.36277668801
2023-12-30T18:20:18.799Z,101116.27034351937
2023-12-30T18:23:16.344Z,101121.00177035553
2023-12-30T18:26:11.927Z,101115.82957125602
2023-12-30T18:29:09.445Z,101119.01512449709
2023-12-30T18:32:07.989Z,101118.78049842863
2023-12-30T18:35:04.644Z,101122.08432824057
2023-12-30T18:38:03.096Z,101122.02911059254
2023-12-30T18:41:00.747Z,101121.65789804274
2023-12-30T18:43:56.262Z,101120.45523634566
2023-12-30T18:46:54.810Z,101122.42239302844
2023-12-30T18:49:52.392Z,101128.37591059445
2023-12-30T18:52:52.887Z,101133.38227019133
2023-12-30T18:55:48.480Z,101134.81681622933
2023-12-30T18:58:50.031Z,101130.39755908353
2023-12-30T19:01:48.385Z,101122.20054202186
2023-12-30T19:04:54.195Z,101123.53502530105
2023-12-30T19:07:51.641Z,101130.39755908353
2023-12-30T19:10:55.086Z,101132.50700783392
2023-12-30T19:13:52.782Z,101124.69216466497
2023-12-30T19:16:48.354Z,101119.9838721467
2023-12-30T19:19:43.872Z,101122.94798620134
2023-12-30T19:22:41.486Z,101120.58857301343
2023-12-30T19:25:39.094Z,101117.89088205168
2023-12-30T19:28:38.570Z,101117.11590904056
2023-12-30T19:31:36.194Z,101124.13364747258
2023-12-30T19:34:33.744Z,101125.67314421017
2023-12-30T19:37:34.985Z,101128.97681733403
2023-12-30T19:40:33.800Z,101127.15081400775
2023-12-30T19:43:35.490Z,101125.71771357178
2023-12-30T19:49:43.462Z,101119.66925888062
2023-12-30T19:52:45.947Z,101116.99814299471
2023-12-30T19:55:50.476Z,101124.99195182495
2023-12-30T19:58:49.018Z,101119.01437788855
2023-12-30T20:01:51.627Z,101118.64414219082
2023-12-30T20:04:49.630Z,101121.87425044818
2023-12-30T20:07:49.773Z,101121.67450367096
2023-12-30T20:10:49.258Z,101123.26692182773
2023-12-30T20:13:47.838Z,101126.29714028828
2023-12-30T20:16:44.410Z,101123.56263945818
2023-12-30T20:19:41.933Z,101124.32949890255
2023-12-30T20:22:37.488Z,101125.59255617659
2023-12-30T20:25:33.079Z,101130.4158401829
2023-12-30T20:28:35.860Z,101125.103005617
2023-12-30T20:31:40.817Z,101126.62401224743
2023-12-30T20:34:42.701Z,101119.61652782914
2023-12-30T20:37:45.227Z,101121.88245651269
2023-12-30T20:40:48.778Z,101130.36807156829
2023-12-30T20:43:55.208Z,101124.03392743562
2023-12-30T20:46:50.830Z,101131.27476535393
2023-12-30T20:49:53.445Z,101128.48066609832
2023-12-30T20:52:53.916Z,101130.16652093657
2023-12-30T20:55:58.453Z,101131.54830369705
2023-12-30T20:59:00.997Z,101130.09707395689
2023-12-30T21:02:01.554Z,101135.0883617683
2023-12-30T21:05:05.065Z,101134.55871413465
2023-12-30T21:08:11.692Z,101139.43903271857
2023-12-30T21:11:14.169Z,101137.28920584252
2023-12-30T21:14:14.788Z,101135.52513818012
2023-12-30T21:17:16.207Z,101139.57087920909
2023-12-30T21:20:13.876Z,101131.95041932206
2023-12-30T21:23:15.331Z,101137.59770640319
2023-12-30T21:26:22.885Z,101129.062135275
2023-12-30T21:29:24.431Z,101135.1699602867
2023-12-30T21:32:27.071Z,101132.96415516347
2023-12-30T21:35:27.535Z,101135.15859140505
2023-12-30T21:38:33.067Z,101139.72068297515
2023-12-30T21:41:40.612Z,101140.45447380324
2023-12-30T21:44:41.125Z,101144.99678604859
2023-12-30T21:47:44.726Z,101138.66491786
2023-12-30T21:50:46.304Z,101140.13099100417
2023-12-30T21:53:52.779Z,101139.88314501115
2023-12-30T21:56:58.315Z,101145.42486240852
2023-12-30T22:00:09.836Z,101151.64709575253
2023-12-30T22:03:10.390Z,101148.2035450647
2023-12-30T22:06:07.931Z,101152.67251744715
2023-12-30T22:09:09.449Z,101156.05993666944
2023-12-30T22:12:21.021Z,101150.66238820711
2023-12-30T22:15:30.506Z,101161.38488392966
2023-12-30T22:18:32.164Z,101166.21411026637
2023-12-30T22:21:33.586Z,101147.87041404311
2023-12-30T22:24:35.147Z,101151.32625076674
2023-12-30T22:27:36.695Z,101148.79250348515
2023-12-30T22:30:40.268Z,101156.34525860351
2023-12-30T22:33:38.939Z,101146.3312378781
2023-12-30T22:36:36.363Z,101146.25835304249
2023-12-30T22:39:37.901Z,101149.22452711649
2023-12-30T22:42:40.424Z,101144.82839358356
2023-12-30T22:45:42.981Z,101146.53306036945
2023-12-30T22:48:46.609Z,101148.1364355839
2023-12-30T22:51:51.119Z,101153.12525474942
2023-12-30T22:54:48.618Z,101142.49593498344
2023-12-30T22:57:50.181Z,101144.52861391577
2023-12-30T23:01:02.807Z,101139.80456788997
2023-12-30T23:04:01.188Z,101134.86373512172
2023-12-30T23:07:13.797Z,101132.38821847923
2023-12-30T23:10:15.398Z,101129.3416560344
2023-12-30T23:13:26.918Z,101132.25238644336
2023-12-30T23:16:38.371Z,101122.64404005406
2023-12-30T23:19:47.961Z,101114.26648514262
2023-12-30T23:22:49.496Z,101108.65334781334
2023-12-30T23:25:50.285Z,101107.02912680553
2023-12-30T23:28:50.542Z,101101.41481960585
2023-12-30T23:31:54.116Z,101098.95497385146
2023-12-30T23:34:56.662Z,101098.4210771812
2023-12-30T23:37:57.122Z,101098.63461981047
2023-12-30T23:40:59.679Z,101095.16490985011
2023-12-30T23:44:01.254Z,101095.84229782499
2023-12-30T23:46:58.803Z,101096.46236671395
2023-12-30T23:49:59.345Z,101101.77755296076
2023-12-30T23:53:02.196Z,101102.75454378036
2023-12-30T23:56:04.457Z,101098.41696317916
2023-12-30T23:59:08.924Z,101098.12184963183
